< < Back
Terminal Aerodrome Forecast


Current Version              Previous Versions:   1  2  3  4  5  6  7  8  9  

Terminal Aerodrome Forecast

469
FTUS42 KCAE 210800 AAA
TAFAGS
TAF AMD
KAGS 210832Z 2109/2206 VRB04KT P6SM SCT200
     FM211600 28007KT P6SM SKC=



Latest METAR

550
SAUS70 KWBC 210958
MTRAGS
METAR KAGS 210953Z AUTO 00000KT 9SM CLR 14/14 A2997 RMK AO2 SLP146
T01440139


USA.gov is the U.S. government's official web portal to all federal, state and local government web resources and services.